createdAt,value
2023-04-23T00:00:23.379Z,3.53
2023-04-23T00:02:52.808Z,3.92
2023-04-23T00:05:19.860Z,3.80
2023-04-23T00:07:46.747Z,4.03
2023-04-23T00:10:13.553Z,3.80
2023-04-23T00:12:40.840Z,3.83
2023-04-23T00:15:08.065Z,5.80
2023-04-23T00:17:34.696Z,4.50
2023-04-23T00:20:01.384Z,4.38
2023-04-23T00:22:28.000Z,4.22
2023-04-23T00:24:54.639Z,4.28
2023-04-23T00:27:21.353Z,4.20
2023-04-23T00:29:48.039Z,4.15
2023-04-23T00:32:15.010Z,4.43
2023-04-23T00:34:42.054Z,4.85
2023-04-23T00:37:08.890Z,5.15
2023-04-23T00:39:37.594Z,5.15
2023-04-23T00:42:11.472Z,5.55
2023-04-23T00:44:38.928Z,5.80
2023-04-23T00:47:06.478Z,5.40
2023-04-23T00:49:33.886Z,5.47
2023-04-23T00:52:03.247Z,5.60
2023-04-23T00:54:29.863Z,5.68
2023-04-23T00:56:59.165Z,5.80
2023-04-23T00:59:26.035Z,5.90
2023-04-23T01:01:53.111Z,5.97
2023-04-23T01:04:20.026Z,5.65
2023-04-23T01:06:47.274Z,6.20
2023-04-23T01:09:14.069Z,6.43
2023-04-23T01:11:42.457Z,5.78
2023-04-23T01:14:09.759Z,6.60
2023-04-23T01:16:38.378Z,6.45
2023-04-23T01:19:06.813Z,6.05
2023-04-23T01:21:34.610Z,6.75
2023-04-23T01:24:02.401Z,6.47
2023-04-23T01:26:28.987Z,6.65
2023-04-23T01:28:55.684Z,6.53
2023-04-23T01:31:22.466Z,6.88
2023-04-23T01:33:51.094Z,6.65
2023-04-23T01:36:18.278Z,6.60
2023-04-23T01:38:45.211Z,7.18
2023-04-23T01:41:11.930Z,7.00
2023-04-23T01:43:38.583Z,7.05
2023-04-23T01:46:05.315Z,6.75
2023-04-23T01:48:31.949Z,8.07
2023-04-23T01:50:58.559Z,6.50
2023-04-23T01:53:25.397Z,6.78
2023-04-23T01:55:52.502Z,7.82
2023-04-23T01:58:19.510Z,7.40
2023-04-23T02:00:46.094Z,7.68
2023-04-23T02:03:12.872Z,7.30
2023-04-23T02:05:39.525Z,7.40
2023-04-23T02:08:06.199Z,7.53
2023-04-23T02:10:32.934Z,6.85
2023-04-23T02:12:59.722Z,7.40
2023-04-23T02:15:26.341Z,6.97
2023-04-23T02:17:53.298Z,7.55
2023-04-23T02:20:20.205Z,8.13
2023-04-23T02:22:47.166Z,7.60
2023-04-23T02:25:15.770Z,7.78
2023-04-23T02:27:42.411Z,7.82
2023-04-23T02:30:09.583Z,7.93
2023-04-23T02:32:37.228Z,7.85
2023-04-23T02:35:06.317Z,8.77
2023-04-23T02:37:33.390Z,8.02
2023-04-23T02:39:59.993Z,8.05
2023-04-23T02:42:26.846Z,7.65
2023-04-23T02:44:53.444Z,8.02
2023-04-23T02:47:20.135Z,6.47
2023-04-23T02:49:47.059Z,5.63
2023-04-23T02:52:13.653Z,4.72
2023-04-23T02:54:40.440Z,4.70
2023-04-23T02:57:07.284Z,4.40
2023-04-23T02:59:33.932Z,4.13
2023-04-23T03:02:00.698Z,4.07
2023-04-23T03:04:27.766Z,4.40
2023-04-23T03:06:54.359Z,4.45
2023-04-23T03:09:21.002Z,4.28
2023-04-23T03:11:48.084Z,4.18
2023-04-23T03:14:14.755Z,4.53
2023-04-23T03:16:41.434Z,4.32
2023-04-23T03:19:08.068Z,4.85
2023-04-23T03:21:35.062Z,4.40
2023-04-23T03:24:01.687Z,5.03
2023-04-23T03:26:28.297Z,4.55
2023-04-23T03:28:55.188Z,4.30
2023-04-23T03:31:21.859Z,4.40
2023-04-23T03:33:48.658Z,4.05
2023-04-23T03:36:15.938Z,3.97
2023-04-23T03:38:42.571Z,4.20
2023-04-23T03:41:09.174Z,4.38
2023-04-23T03:43:35.835Z,4.28
2023-04-23T03:46:02.538Z,3.92
2023-04-23T03:48:29.296Z,4.38
2023-04-23T03:50:55.896Z,4.25
2023-04-23T03:53:22.503Z,5.45
2023-04-23T03:55:49.121Z,5.80
2023-04-23T03:58:15.832Z,5.60
2023-04-23T04:00:42.425Z,5.60
2023-04-23T04:03:09.211Z,6.25
2023-04-23T04:05:36.003Z,5.43
2023-04-23T04:08:03.029Z,6.00
2023-04-23T04:10:29.661Z,5.53
2023-04-23T04:12:56.315Z,5.68
2023-04-23T04:15:23.361Z,6.15
2023-04-23T04:17:49.999Z,5.97
2023-04-23T04:20:16.644Z,6.35
2023-04-23T04:22:43.587Z,5.90
2023-04-23T04:25:10.203Z,5.45
2023-04-23T04:27:37.517Z,5.90
2023-04-23T04:30:05.596Z,5.95
2023-04-23T04:32:32.612Z,5.93
2023-04-23T04:34:59.233Z,5.47
2023-04-23T04:37:26.392Z,4.78
2023-04-23T04:39:53.008Z,5.38
2023-04-23T04:42:20.261Z,5.85
2023-04-23T04:44:46.907Z,5.50
2023-04-23T04:47:13.566Z,4.65
2023-04-23T04:49:40.270Z,5.43
2023-04-23T04:52:06.880Z,5.10
2023-04-23T04:54:33.548Z,5.60
2023-04-23T04:57:00.747Z,5.30
2023-04-23T04:59:27.368Z,5.45
2023-04-23T05:01:54.133Z,5.38
2023-04-23T05:04:20.811Z,5.70
2023-04-23T05:06:47.415Z,5.07
2023-04-23T05:09:14.030Z,5.57
2023-04-23T05:11:41.339Z,5.78
2023-04-23T05:14:07.973Z,6.47
2023-04-23T05:16:34.687Z,5.97
2023-04-23T05:19:01.627Z,5.63
2023-04-23T05:21:28.296Z,6.32
2023-04-23T05:23:55.798Z,5.93
2023-04-23T05:26:22.423Z,5.70
2023-04-23T05:28:49.051Z,5.57
2023-04-23T05:31:15.797Z,5.15
2023-04-23T05:33:49.823Z,5.32
2023-04-23T05:36:17.387Z,5.45
2023-04-23T05:38:45.404Z,5.55
2023-04-23T05:41:12.084Z,5.20
2023-04-23T05:43:38.726Z,5.43
2023-04-23T05:46:07.322Z,5.30
2023-04-23T05:48:34.455Z,5.82
2023-04-23T05:51:02.979Z,6.43
2023-04-23T05:53:29.620Z,5.82
2023-04-23T05:55:56.304Z,5.57
2023-04-23T05:58:23.245Z,5.25
2023-04-23T06:00:50.166Z,5.63
2023-04-23T06:03:16.958Z,4.97
2023-04-23T06:05:43.770Z,5.55
2023-04-23T06:08:10.435Z,5.30
2023-04-23T06:10:37.111Z,4.90
2023-04-23T06:13:03.770Z,4.60
2023-04-23T06:15:30.790Z,4.53
2023-04-23T06:17:57.645Z,4.10
2023-04-23T06:20:24.987Z,4.60
2023-04-23T06:22:51.620Z,4.78
2023-04-23T06:25:18.414Z,4.38
2023-04-23T06:27:45.031Z,4.18
2023-04-23T06:30:12.062Z,5.05
2023-04-23T06:32:38.733Z,10.52
2023-04-23T06:35:07.203Z,6.53
2023-04-23T06:37:34.224Z,4.90
2023-04-23T06:40:00.933Z,4.65
2023-04-23T06:42:27.631Z,4.80
2023-04-23T06:44:54.465Z,4.35
2023-04-23T06:47:21.130Z,4.00
2023-04-23T06:49:47.799Z,4.45
2023-04-23T06:52:14.422Z,3.90
2023-04-23T06:54:41.410Z,4.15
2023-04-23T06:57:08.273Z,3.55
2023-04-23T06:59:34.890Z,3.38
2023-04-23T07:02:01.573Z,3.63
2023-04-23T07:04:28.252Z,4.20
2023-04-23T07:06:55.116Z,4.13
2023-04-23T07:09:21.881Z,4.30
2023-04-23T07:11:48.489Z,4.45
2023-04-23T07:14:15.120Z,4.82
2023-04-23T07:16:41.846Z,4.72
2023-04-23T07:19:08.519Z,5.78
2023-04-23T07:21:43.662Z,5.80
2023-04-23T07:24:10.301Z,6.15
2023-04-23T07:26:37.227Z,6.15
2023-04-23T07:29:07.971Z,5.78
2023-04-23T07:31:34.633Z,6.05
2023-04-23T07:34:01.348Z,6.45
2023-04-23T07:36:28.307Z,5.63
2023-04-23T07:38:55.075Z,6.32
2023-04-23T07:41:22.031Z,6.28
2023-04-23T07:43:48.632Z,6.53
2023-04-23T07:46:15.379Z,6.57
2023-04-23T07:48:42.003Z,6.38
2023-04-23T07:51:08.878Z,6.13
2023-04-23T07:53:35.604Z,6.18
2023-04-23T07:56:02.275Z,5.13
2023-04-23T07:58:28.938Z,5.50
2023-04-23T08:00:55.626Z,4.95
2023-04-23T08:03:23.736Z,5.85
2023-04-23T08:05:51.018Z,5.63
2023-04-23T08:08:17.956Z,5.45
2023-04-23T08:10:45.272Z,6.07
2023-04-23T08:13:11.927Z,5.50
2023-04-23T08:15:38.642Z,5.65
2023-04-23T08:18:05.559Z,5.30
2023-04-23T08:20:32.527Z,5.40
2023-04-23T08:22:59.254Z,6.55
2023-04-23T08:25:26.080Z,5.40
2023-04-23T08:27:52.840Z,6.43
2023-04-23T08:30:19.469Z,5.68
2023-04-23T08:32:46.638Z,6.10
2023-04-23T08:35:13.543Z,6.28
2023-04-23T08:37:40.314Z,6.40
2023-04-23T08:40:07.991Z,5.65
2023-04-23T08:42:41.750Z,5.82
2023-04-23T08:45:08.781Z,5.18
2023-04-23T08:47:36.105Z,5.55
2023-04-23T08:50:02.898Z,5.00
2023-04-23T08:52:31.336Z,5.20
2023-04-23T08:55:01.016Z,4.97
2023-04-23T08:57:27.930Z,4.65
2023-04-23T08:59:55.271Z,4.80
2023-04-23T09:02:22.051Z,4.68
2023-04-23T09:04:50.875Z,4.35
2023-04-23T09:07:18.501Z,4.60
2023-04-23T09:09:45.445Z,3.78
2023-04-23T09:12:12.092Z,4.70
2023-04-23T09:14:38.723Z,4.85
2023-04-23T09:17:05.460Z,4.28
2023-04-23T09:19:32.465Z,4.25
2023-04-23T09:22:00.972Z,4.00
2023-04-23T09:24:28.097Z,4.40
2023-04-23T09:26:54.978Z,4.45
2023-04-23T09:29:23.549Z,3.80
2023-04-23T09:31:55.549Z,4.68
2023-04-23T09:34:23.789Z,4.30
2023-04-23T09:36:51.764Z,3.70
2023-04-23T09:39:19.528Z,4.30
2023-04-23T09:41:48.966Z,4.22
2023-04-23T09:44:19.358Z,3.90
2023-04-23T09:46:46.073Z,4.30
2023-04-23T09:49:12.857Z,4.60
2023-04-23T09:51:44.040Z,4.60
2023-04-23T09:54:14.902Z,3.90
2023-04-23T09:56:44.433Z,4.15
2023-04-23T09:59:46.304Z,4.47
2023-04-23T10:02:11.795Z,4.10
2023-04-23T10:04:38.712Z,4.22
2023-04-23T10:07:19.040Z,3.75
2023-04-23T10:09:46.688Z,3.95
2023-04-23T10:12:33.316Z,3.65
2023-04-23T10:15:00.139Z,3.42
2023-04-23T10:17:26.810Z,3.95
2023-04-23T10:19:53.512Z,4.32
2023-04-23T10:22:20.498Z,4.22
2023-04-23T10:24:49.324Z,3.60
2023-04-23T10:27:28.441Z,3.40
2023-04-23T10:30:05.495Z,3.60
2023-04-23T10:32:33.862Z,3.40
2023-04-23T10:35:00.860Z,3.20
2023-04-23T10:37:27.917Z,3.92
2023-04-23T10:39:55.762Z,3.50
2023-04-23T10:42:22.700Z,3.50
2023-04-23T10:47:20.637Z,3.90
2023-04-23T10:49:47.329Z,3.88
2023-04-23T10:52:20.649Z,3.80
2023-04-23T10:54:50.343Z,3.08
2023-04-23T10:57:16.949Z,3.50
2023-04-23T10:59:54.110Z,3.30
2023-04-23T11:02:21.178Z,2.70
2023-04-23T11:04:53.994Z,2.88
2023-04-23T11:07:20.813Z,3.20
2023-04-23T11:09:47.727Z,3.53
2023-04-23T11:12:30.775Z,3.10
2023-04-23T11:15:09.682Z,6.32
2023-04-23T11:17:36.245Z,3.65
2023-04-23T11:20:16.239Z,3.28
2023-04-23T11:22:43.694Z,2.70
2023-04-23T11:25:15.372Z,2.90
2023-04-23T11:27:45.813Z,2.90
2023-04-23T11:30:22.862Z,2.70
2023-04-23T11:32:50.749Z,2.75
2023-04-23T11:35:18.776Z,2.40
2023-04-23T11:37:45.722Z,2.20
2023-04-23T11:40:14.240Z,2.65
2023-04-23T11:42:43.025Z,2.78
2023-04-23T11:45:15.902Z,2.45
2023-04-23T11:47:43.213Z,3.28
2023-04-23T11:50:10.243Z,2.90
2023-04-23T11:52:38.449Z,2.35
2023-04-23T11:55:07.297Z,2.40
2023-04-23T11:57:40.768Z,2.97
2023-04-23T12:00:18.926Z,2.60
2023-04-23T12:03:02.257Z,2.58
2023-04-23T12:05:39.641Z,2.25
2023-04-23T12:08:15.042Z,2.20
2023-04-23T12:10:45.929Z,1.67
2023-04-23T12:13:17.056Z,2.10
2023-04-23T12:15:56.596Z,2.50
2023-04-23T12:18:30.576Z,2.30
2023-04-23T12:21:04.780Z,2.25
2023-04-23T12:23:31.754Z,2.70
2023-04-23T12:25:58.375Z,2.22
2023-04-23T12:28:25.611Z,2.30
2023-04-23T12:30:52.319Z,1.80
2023-04-23T12:33:18.935Z,2.00
2023-04-23T12:35:52.205Z,1.90
2023-04-23T12:38:26.444Z,2.33
2023-04-23T12:43:20.148Z,1.75
2023-04-23T12:45:46.851Z,2.00
2023-04-23T12:48:13.708Z,2.20
2023-04-23T12:50:40.402Z,2.70
2023-04-23T12:53:07.836Z,2.22
2023-04-23T12:55:34.555Z,1.60
2023-04-23T12:58:01.175Z,2.10
2023-04-23T13:00:27.867Z,1.75
2023-04-23T13:02:55.466Z,2.15
2023-04-23T13:05:22.625Z,1.98
2023-04-23T13:07:49.257Z,1.50
2023-04-23T13:10:16.248Z,1.50
2023-04-23T13:12:43.153Z,2.10
2023-04-23T13:15:12.003Z,1.40
2023-04-23T13:17:38.961Z,1.83
2023-04-23T13:20:06.629Z,1.52
2023-04-23T13:22:33.400Z,1.50
2023-04-23T13:25:00.078Z,1.58
2023-04-23T13:27:28.164Z,1.70
2023-04-23T13:29:55.317Z,1.80
2023-04-23T13:32:23.600Z,1.60
2023-04-23T13:34:50.300Z,2.15
2023-04-23T13:37:17.189Z,2.00
2023-04-23T13:39:44.416Z,2.13
2023-04-23T13:42:11.371Z,1.80
2023-04-23T13:44:37.992Z,1.90
2023-04-23T13:47:04.739Z,1.98
2023-04-23T13:49:31.954Z,2.10
2023-04-23T13:52:01.324Z,2.13
2023-04-23T13:54:28.262Z,2.28
2023-04-23T13:56:55.980Z,2.13
2023-04-23T13:59:26.196Z,2.30
2023-04-23T14:01:52.927Z,1.73
2023-04-23T14:04:22.736Z,1.70
2023-04-23T14:06:49.581Z,1.65
2023-04-23T14:09:16.198Z,2.05
2023-04-23T14:11:42.896Z,2.30
2023-04-23T14:14:09.527Z,2.08
2023-04-23T14:16:36.175Z,2.63
2023-04-23T14:19:02.779Z,2.08
2023-04-23T14:21:29.492Z,1.80
2023-04-23T14:24:08.382Z,2.10
2023-04-23T14:29:42.651Z,2.60
2023-04-23T14:32:09.510Z,2.20
2023-04-23T14:34:36.324Z,1.80
2023-04-23T14:37:03.269Z,2.08
2023-04-23T14:39:29.922Z,2.03
2023-04-23T14:41:56.602Z,1.95
2023-04-23T14:44:23.521Z,2.30
2023-04-23T14:46:51.149Z,2.33
2023-04-23T14:49:18.783Z,3.00
2023-04-23T14:51:45.762Z,2.85
2023-04-23T14:54:12.623Z,2.20
2023-04-23T14:56:39.502Z,2.10
2023-04-23T14:59:06.180Z,2.50
2023-04-23T15:01:32.918Z,2.38
2023-04-23T15:03:59.703Z,2.00
2023-04-23T15:06:26.434Z,2.20
2023-04-23T15:08:53.060Z,2.13
2023-04-23T15:11:19.665Z,2.30
2023-04-23T15:13:53.997Z,1.85
2023-04-23T15:16:48.993Z,2.50
2023-04-23T15:19:17.770Z,2.50
2023-04-23T15:21:45.053Z,2.00
2023-04-23T15:24:11.696Z,2.33
2023-04-23T15:26:38.417Z,1.92
2023-04-23T15:29:06.045Z,1.92
2023-04-23T15:31:32.852Z,1.95
2023-04-23T15:33:59.533Z,2.58
2023-04-23T15:36:26.253Z,1.67
2023-04-23T15:38:52.972Z,1.80
2023-04-23T15:41:19.575Z,1.60
2023-04-23T15:43:47.317Z,1.80
2023-04-23T15:46:14.026Z,1.90
2023-04-23T15:48:40.788Z,2.00
2023-04-23T15:51:07.708Z,1.77
2023-04-23T15:53:34.324Z,1.65
2023-04-23T15:56:01.048Z,1.60
2023-04-23T15:58:27.764Z,1.90
2023-04-23T16:00:55.071Z,1.95
2023-04-23T16:03:21.827Z,2.00
2023-04-23T16:05:50.904Z,2.03
2023-04-23T16:08:17.509Z,1.85
2023-04-23T16:10:44.225Z,2.33
2023-04-23T16:13:10.827Z,2.55
2023-04-23T16:15:37.479Z,1.70
2023-04-23T16:18:04.192Z,1.55
2023-04-23T16:20:30.930Z,1.38
2023-04-23T16:22:57.575Z,1.90
2023-04-23T16:25:24.281Z,1.67
2023-04-23T16:27:51.152Z,1.83
2023-04-23T16:30:17.808Z,1.85
2023-04-23T16:32:44.952Z,1.70
2023-04-23T16:35:11.721Z,1.85
2023-04-23T16:37:38.307Z,1.60
2023-04-23T16:40:05.973Z,1.48
2023-04-23T16:42:32.698Z,1.60
2023-04-23T16:44:59.466Z,1.63
2023-04-23T16:47:26.406Z,1.85
2023-04-23T16:49:53.175Z,1.77
2023-04-23T16:52:19.826Z,1.98
2023-04-23T16:54:49.179Z,1.95
2023-04-23T16:57:16.706Z,2.95
2023-04-23T16:59:43.302Z,2.65
2023-04-23T17:02:10.587Z,1.60
2023-04-23T17:04:37.524Z,1.80
2023-04-23T17:07:04.350Z,1.60
2023-04-23T17:09:31.635Z,2.40
2023-04-23T17:11:59.156Z,2.60
2023-04-23T17:14:26.061Z,2.60
2023-04-23T17:16:52.733Z,2.72
2023-04-23T17:19:19.371Z,2.20
2023-04-23T17:21:46.021Z,2.10
2023-04-23T17:24:12.833Z,2.40
2023-04-23T17:26:39.869Z,2.90
2023-04-23T17:29:08.256Z,2.42
2023-04-23T17:31:37.587Z,2.30
2023-04-23T17:34:04.982Z,1.63
2023-04-23T17:36:31.803Z,1.98
2023-04-23T17:38:58.525Z,3.00
2023-04-23T17:41:25.328Z,2.60
2023-04-23T17:43:51.963Z,2.85
2023-04-23T17:46:18.634Z,3.05
2023-04-23T17:48:45.284Z,2.90
2023-04-23T17:51:12.122Z,2.72
2023-04-23T17:53:38.808Z,2.00
2023-04-23T17:56:05.457Z,1.90
2023-04-23T17:58:32.090Z,2.40
2023-04-23T18:00:58.760Z,2.50
2023-04-23T18:03:26.554Z,2.22
2023-04-23T18:05:53.962Z,2.45
2023-04-23T18:08:21.265Z,2.55
2023-04-23T18:10:48.174Z,2.83
2023-04-23T18:13:14.906Z,3.10
2023-04-23T18:15:42.252Z,4.78
2023-04-23T18:18:09.171Z,4.75
2023-04-23T18:20:38.556Z,3.13
2023-04-23T18:23:06.394Z,2.85
2023-04-23T18:25:33.137Z,2.25
2023-04-23T18:28:00.138Z,2.20
2023-04-23T18:30:26.847Z,2.40
2023-04-23T18:33:15.061Z,1.98
2023-04-23T18:35:42.894Z,2.20
2023-04-23T18:38:25.996Z,3.30
2023-04-23T18:40:52.604Z,3.30
2023-04-23T18:43:19.278Z,3.72
2023-04-23T18:45:45.895Z,3.92
2023-04-23T18:48:33.375Z,4.22
2023-04-23T18:51:19.501Z,2.63
2023-04-23T18:53:46.693Z,2.25
2023-04-23T18:56:13.343Z,1.75
2023-04-23T18:58:39.958Z,2.08
2023-04-23T19:01:06.615Z,2.15
2023-04-23T19:03:33.612Z,2.80
2023-04-23T19:06:00.250Z,2.95
2023-04-23T19:08:29.906Z,2.80
2023-04-23T19:10:56.627Z,2.58
2023-04-23T19:13:23.452Z,2.00
2023-04-23T19:15:50.462Z,4.90
2023-04-23T19:18:17.896Z,3.05
2023-04-23T19:20:44.627Z,2.35
2023-04-23T19:23:11.586Z,2.40
2023-04-23T19:25:38.175Z,1.60
2023-04-23T19:28:04.824Z,1.48
2023-04-23T19:30:32.254Z,1.75
2023-04-23T19:32:58.909Z,1.63
2023-04-23T19:35:25.680Z,1.80
2023-04-23T19:37:52.321Z,1.42
2023-04-23T19:40:19.032Z,1.60
2023-04-23T19:42:45.777Z,1.60
2023-04-23T19:45:12.490Z,1.50
2023-04-23T19:47:40.069Z,1.65
2023-04-23T19:50:07.676Z,1.48
2023-04-23T19:52:34.410Z,1.08
2023-04-23T19:55:01.037Z,1.15
2023-04-23T19:57:27.944Z,1.63
2023-04-23T19:59:54.553Z,1.40
2023-04-23T20:02:21.475Z,1.48
2023-04-23T20:04:48.275Z,1.50
2023-04-23T20:07:14.933Z,1.50
2023-04-23T20:09:41.981Z,1.75
2023-04-23T20:12:08.814Z,2.15
2023-04-23T20:14:35.485Z,2.30
2023-04-23T20:17:02.287Z,2.35
2023-04-23T20:19:30.927Z,2.38
2023-04-23T20:21:57.540Z,2.20
2023-04-23T20:24:24.142Z,2.28
2023-04-23T20:26:50.907Z,2.55
2023-04-23T20:29:17.535Z,2.22
2023-04-23T20:31:48.711Z,2.40
2023-04-23T20:34:16.513Z,2.45
2023-04-23T20:36:43.123Z,2.38
2023-04-23T20:39:10.795Z,2.75
2023-04-23T20:41:37.411Z,3.40
2023-04-23T20:44:04.897Z,2.80
2023-04-23T20:46:32.130Z,2.95
2023-04-23T20:49:03.219Z,2.63
2023-04-23T20:51:29.936Z,4.35
2023-04-23T20:53:59.555Z,4.20
2023-04-23T20:56:26.311Z,6.15
2023-04-23T20:58:52.994Z,6.28
2023-04-23T21:01:19.778Z,4.13
2023-04-23T21:03:46.602Z,3.10
2023-04-23T21:06:13.338Z,3.20
2023-04-23T21:08:42.453Z,3.20
2023-04-23T21:11:11.224Z,3.40
2023-04-23T21:13:38.089Z,3.03
2023-04-23T21:16:04.903Z,3.22
2023-04-23T21:18:31.648Z,3.53
2023-04-23T21:20:58.338Z,4.05
2023-04-23T21:23:25.009Z,3.75
2023-04-23T21:25:51.695Z,2.85
2023-04-23T21:28:18.726Z,3.10
2023-04-23T21:30:49.136Z,3.10
2023-04-23T21:33:16.174Z,2.90
2023-04-23T21:35:43.190Z,3.38
2023-04-23T21:38:10.210Z,3.50
2023-04-23T21:40:37.103Z,3.42
2023-04-23T21:43:04.398Z,3.55
2023-04-23T21:45:31.516Z,2.90
2023-04-23T21:47:58.400Z,3.30
2023-04-23T21:50:26.010Z,2.75
2023-04-23T21:52:53.361Z,2.90
2023-04-23T21:55:20.779Z,2.35
2023-04-23T21:57:47.984Z,2.90
2023-04-23T22:00:15.916Z,2.75
2023-04-23T22:02:46.406Z,2.42
2023-04-23T22:05:14.656Z,2.33
2023-04-23T22:07:42.397Z,2.13
2023-04-23T22:10:11.335Z,2.08
2023-04-23T22:12:38.937Z,2.30
2023-04-23T22:15:06.917Z,2.03
2023-04-23T22:17:35.621Z,2.05
2023-04-23T22:20:06.768Z,1.90
2023-04-23T22:22:34.291Z,1.67
2023-04-23T22:25:01.940Z,1.83
2023-04-23T22:27:28.807Z,1.73
2023-04-23T22:29:55.559Z,1.75
2023-04-23T22:32:22.283Z,1.77
2023-04-23T22:34:48.963Z,2.80
2023-04-23T22:37:15.792Z,2.15
2023-04-23T22:39:42.622Z,2.00
2023-04-23T22:42:09.493Z,2.00
2023-04-23T22:44:37.709Z,1.50
2023-04-23T22:47:05.549Z,1.52
2023-04-23T22:49:32.210Z,1.45
2023-04-23T22:51:58.832Z,1.50
2023-04-23T22:54:25.473Z,1.30
2023-04-23T22:56:52.164Z,1.30
2023-04-23T22:59:19.268Z,1.45
2023-04-23T23:01:46.018Z,1.60
2023-04-23T23:04:13.243Z,1.77
2023-04-23T23:06:41.403Z,1.42
2023-04-23T23:09:08.041Z,1.45
2023-04-23T23:11:34.765Z,1.60
2023-04-23T23:14:01.349Z,1.50
2023-04-23T23:16:27.985Z,1.13
2023-04-23T23:18:54.644Z,1.00
2023-04-23T23:21:21.312Z,1.42
2023-04-23T23:23:48.341Z,1.50
2023-04-23T23:26:15.056Z,1.48
2023-04-23T23:28:41.748Z,1.50
2023-04-23T23:31:09.025Z,1.50
2023-04-23T23:33:36.240Z,1.30
2023-04-23T23:36:03.022Z,1.25
2023-04-23T23:38:29.713Z,1.50
2023-04-23T23:40:56.355Z,1.55
2023-04-23T23:43:23.021Z,1.30
2023-04-23T23:45:49.651Z,1.30
2023-04-23T23:48:16.271Z,1.40
2023-04-23T23:50:42.914Z,1.20
2023-04-23T23:53:09.539Z,1.25
2023-04-23T23:55:38.532Z,1.50
2023-04-23T23:58:06.243Z,1.20
